createdAt,value
2022-08-18T00:02:43.459Z,100.00
2022-08-18T00:07:55.486Z,100.00
2022-08-18T00:13:01.584Z,100.00
2022-08-18T00:18:06.336Z,100.00
2022-08-18T00:23:10.857Z,100.00
2022-08-18T00:28:16.577Z,100.00
2022-08-18T00:33:20.907Z,100.00
2022-08-18T00:38:25.764Z,100.00
2022-08-18T00:43:40.726Z,100.00
2022-08-18T00:48:48.565Z,100.00
2022-08-18T00:54:03.200Z,100.00
2022-08-18T00:59:15.209Z,100.00
2022-08-18T01:04:27.561Z,100.00
2022-08-18T01:09:31.949Z,100.00
2022-08-18T01:14:39.371Z,100.00
2022-08-18T01:20:01.361Z,100.00
2022-08-18T01:25:28.040Z,100.00
2022-08-18T01:30:45.402Z,100.00
2022-08-18T01:35:50.743Z,100.00
2022-08-18T01:41:17.333Z,100.00
2022-08-18T01:46:23.201Z,100.00
2022-08-18T01:51:39.496Z,100.00
2022-08-18T01:56:48.294Z,100.00
2022-08-18T02:01:55.611Z,100.00
2022-08-18T02:07:01.288Z,100.00
2022-08-18T02:12:10.748Z,100.00
2022-08-18T02:17:15.586Z,100.00
2022-08-18T02:22:22.283Z,100.00
2022-08-18T02:27:29.802Z,100.00
2022-08-18T02:32:35.166Z,100.00
2022-08-18T02:37:42.044Z,100.00
2022-08-18T02:42:49.842Z,100.00
2022-08-18T02:47:55.692Z,100.00
2022-08-18T02:53:00.130Z,100.00
2022-08-18T02:58:06.734Z,100.00
2022-08-18T03:03:11.226Z,100.00
2022-08-18T03:08:15.721Z,100.00
2022-08-18T03:13:21.598Z,100.00
2022-08-18T03:18:25.947Z,100.00
2022-08-18T03:23:30.552Z,100.00
2022-08-18T03:28:36.950Z,100.00
2022-08-18T03:33:42.208Z,100.00
2022-08-18T03:38:52.535Z,100.00
2022-08-18T03:44:03.015Z,100.00
2022-08-18T03:49:08.982Z,100.00
2022-08-18T03:54:15.808Z,100.00
2022-08-18T03:59:24.766Z,100.00
2022-08-18T04:04:30.204Z,100.00
2022-08-18T04:09:37.366Z,100.00
2022-08-18T04:14:46.565Z,100.00
2022-08-18T04:19:51.983Z,100.00
2022-08-18T04:24:57.988Z,100.00
2022-08-18T04:30:04.894Z,100.00
2022-08-18T04:35:14.033Z,100.00
2022-08-18T04:40:24.844Z,100.00
2022-08-18T04:45:31.646Z,100.00
2022-08-18T04:50:38.407Z,100.00
2022-08-18T04:55:49.768Z,100.00
2022-08-18T05:01:02.858Z,100.00
2022-08-18T05:06:08.384Z,100.00
2022-08-18T05:11:12.692Z,100.00
2022-08-18T05:16:27.205Z,100.00
2022-08-18T05:21:33.807Z,100.00
2022-08-18T05:26:41.899Z,100.00
2022-08-18T05:31:49.216Z,100.00
2022-08-18T05:37:12.096Z,100.00
2022-08-18T05:42:21.354Z,100.00
2022-08-18T05:47:30.886Z,100.00
2022-08-18T05:52:40.763Z,100.00
2022-08-18T05:57:53.791Z,100.00
2022-08-18T06:03:10.003Z,100.00
2022-08-18T06:08:18.183Z,100.00
2022-08-18T06:13:23.076Z,100.00
2022-08-18T06:18:44.055Z,100.00
2022-08-18T06:24:06.215Z,100.00
2022-08-18T06:29:32.473Z,100.00
2022-08-18T06:34:54.600Z,100.00
2022-08-18T06:39:59.324Z,100.00
2022-08-18T06:45:12.908Z,100.00
2022-08-18T06:50:27.840Z,100.00
2022-08-18T06:55:39.296Z,100.00
2022-08-18T07:00:57.181Z,100.00
2022-08-18T07:06:07.423Z,100.00
2022-08-18T07:11:21.396Z,100.00
2022-08-18T07:16:54.974Z,100.00
2022-08-18T07:22:08.462Z,100.00
2022-08-18T07:27:17.519Z,100.00
2022-08-18T07:32:26.867Z,100.00
2022-08-18T07:37:42.008Z,100.00
2022-08-18T07:43:01.813Z,100.00
2022-08-18T07:48:36.863Z,100.00
2022-08-18T07:53:56.832Z,100.00
2022-08-18T07:59:13.479Z,100.00
2022-08-18T08:04:37.997Z,100.00
2022-08-18T08:09:57.216Z,100.00
2022-08-18T08:15:18.347Z,100.00
2022-08-18T08:20:44.467Z,100.00
2022-08-18T08:26:18.957Z,100.00
2022-08-18T08:31:49.182Z,100.00
2022-08-18T08:37:03.137Z,100.00
2022-08-18T08:42:30.464Z,100.00
2022-08-18T08:47:46.351Z,100.00
2022-08-18T08:52:57.436Z,100.00
2022-08-18T08:58:20.927Z,100.00
2022-08-18T09:03:49.144Z,100.00
2022-08-18T09:09:28.420Z,100.00
2022-08-18T09:15:08.436Z,100.00
2022-08-18T09:20:37.408Z,100.00
2022-08-18T09:25:51.882Z,96.04
2022-08-18T09:31:19.999Z,98.80
2022-08-18T09:36:44.798Z,78.39
2022-08-18T09:41:59.591Z,67.40
2022-08-18T09:47:07.531Z,59.46
2022-08-18T09:52:50.568Z,52.85
2022-08-18T09:58:22.974Z,42.67
2022-08-18T10:03:32.443Z,47.62
2022-08-18T10:09:36.855Z,41.15
2022-08-18T10:15:32.915Z,42.41
2022-08-18T10:20:58.037Z,44.36
2022-08-18T10:26:05.125Z,44.64
2022-08-18T10:31:16.475Z,45.27
2022-08-18T10:36:46.825Z,45.49
2022-08-18T10:42:05.611Z,48.31
2022-08-18T10:47:23.353Z,49.59
2022-08-18T10:53:39.391Z,49.81
2022-08-18T10:58:53.422Z,49.14
2022-08-18T11:04:14.425Z,48.78
2022-08-18T11:09:35.649Z,49.16
2022-08-18T11:15:22.304Z,50.40
2022-08-18T11:20:33.260Z,50.59
2022-08-18T11:25:42.156Z,49.69
2022-08-18T11:30:53.704Z,48.84
2022-08-18T11:36:01.696Z,49.98
2022-08-18T11:41:23.321Z,49.49
2022-08-18T11:46:32.544Z,47.58
2022-08-18T11:52:03.498Z,49.05
2022-08-18T11:57:59.249Z,52.50
2022-08-18T12:03:32.642Z,54.15
2022-08-18T12:08:58.261Z,55.74
2022-08-18T12:14:31.819Z,55.80
2022-08-18T12:19:40.107Z,54.19
2022-08-18T12:24:46.100Z,52.24
2022-08-18T12:29:58.452Z,51.09
2022-08-18T12:35:09.205Z,49.54
2022-08-18T12:40:15.192Z,46.75
2022-08-18T12:45:21.467Z,46.60
2022-08-18T12:50:30.912Z,45.07
2022-08-18T12:55:44.179Z,42.96
2022-08-18T13:00:51.874Z,41.34
2022-08-18T13:05:56.835Z,42.09
2022-08-18T13:11:15.101Z,42.29
2022-08-18T13:16:53.409Z,42.40
2022-08-18T13:21:57.164Z,39.79
2022-08-18T13:27:04.074Z,36.75
2022-08-18T13:32:26.317Z,36.67
2022-08-18T13:37:33.302Z,35.60
2022-08-18T13:42:53.022Z,32.58
2022-08-18T13:48:02.290Z,32.15
2022-08-18T13:53:18.879Z,32.81
2022-08-18T13:58:24.171Z,35.01
2022-08-18T14:03:46.680Z,36.34
2022-08-18T14:08:57.096Z,39.51
2022-08-18T14:14:06.439Z,40.64
2022-08-18T14:19:30.151Z,41.60
2022-08-18T14:24:54.531Z,42.55
2022-08-18T14:30:07.790Z,43.83
2022-08-18T14:36:04.362Z,44.12
2022-08-18T14:40:48.128Z,44.77
2022-08-18T14:45:53.860Z,45.26
2022-08-18T14:51:04.779Z,45.68
2022-08-18T14:56:17.774Z,46.14
2022-08-18T15:01:23.243Z,48.78
2022-08-18T15:06:55.891Z,51.12
2022-08-18T15:12:02.449Z,53.72
2022-08-18T15:17:13.290Z,56.39
2022-08-18T15:22:41.592Z,60.20
2022-08-18T15:27:57.484Z,62.01
2022-08-18T15:33:05.794Z,63.24
2022-08-18T15:38:24.372Z,65.48
2022-08-18T15:43:46.100Z,67.19
2022-08-18T15:48:54.127Z,68.22
2022-08-18T15:54:03.383Z,69.03
2022-08-18T15:59:19.650Z,68.90
2022-08-18T16:04:27.209Z,69.78
2022-08-18T16:09:33.726Z,70.78
2022-08-18T16:14:41.337Z,70.77
2022-08-18T16:19:46.554Z,70.84
2022-08-18T16:24:56.073Z,70.15
2022-08-18T16:30:17.297Z,69.76
2022-08-18T16:35:23.892Z,68.28
2022-08-18T16:40:33.489Z,68.77
2022-08-18T16:45:40.471Z,69.06
2022-08-18T16:50:46.525Z,70.40
2022-08-18T16:55:52.184Z,71.35
2022-08-18T17:01:18.801Z,71.61
2022-08-18T17:06:28.668Z,73.63
2022-08-18T17:11:34.487Z,74.45
2022-08-18T17:16:55.441Z,74.59
2022-08-18T17:22:00.455Z,75.57
2022-08-18T17:27:26.575Z,76.18
2022-08-18T17:32:42.129Z,77.28
2022-08-18T17:37:53.004Z,79.06
2022-08-18T17:43:00.189Z,79.84
2022-08-18T17:48:12.451Z,80.78
2022-08-18T17:53:18.316Z,81.63
2022-08-18T17:58:39.281Z,82.58
2022-08-18T18:03:45.706Z,83.43
2022-08-18T18:08:58.101Z,85.05
2022-08-18T18:14:27.009Z,86.10
2022-08-18T18:19:33.335Z,87.28
2022-08-18T18:24:40.163Z,88.66
2022-08-18T18:29:56.345Z,90.62
2022-08-18T18:35:23.724Z,94.30
2022-08-18T18:40:37.011Z,96.29
2022-08-18T18:45:43.905Z,96.93
2022-08-18T18:51:10.389Z,96.53
2022-08-18T18:56:25.768Z,97.81
2022-08-18T19:01:45.169Z,97.64
2022-08-18T19:07:00.149Z,97.90
2022-08-18T19:12:17.296Z,98.57
2022-08-18T19:17:33.194Z,100.00
2022-08-18T19:22:47.561Z,100.00
2022-08-18T19:28:05.040Z,100.00
2022-08-18T19:33:25.939Z,100.00
2022-08-18T19:38:42.162Z,100.00
2022-08-18T19:43:57.356Z,100.00
2022-08-18T19:49:18.557Z,100.00
2022-08-18T19:54:54.979Z,100.00
2022-08-18T20:00:27.709Z,100.00
2022-08-18T20:05:52.145Z,100.00
2022-08-18T20:11:22.020Z,100.00
2022-08-18T20:17:19.740Z,100.00
2022-08-18T20:30:49.088Z,100.00
2022-08-18T20:36:44.209Z,100.00
2022-08-18T20:41:52.077Z,100.00
2022-08-18T20:47:15.025Z,100.00
2022-08-18T20:53:41.061Z,100.00
2022-08-18T21:00:28.410Z,100.00
2022-08-18T21:14:07.742Z,100.00
2022-08-18T21:19:27.938Z,100.00
2022-08-18T21:24:37.116Z,100.00
2022-08-18T21:29:49.827Z,100.00
2022-08-18T21:34:57.299Z,100.00
2022-08-18T21:40:12.720Z,100.00
2022-08-18T21:45:25.229Z,100.00
2022-08-18T21:50:32.193Z,100.00
2022-08-18T21:55:42.578Z,100.00
2022-08-18T22:01:11.834Z,100.00
2022-08-18T22:06:36.228Z,100.00
2022-08-18T22:12:01.279Z,100.00
2022-08-18T22:17:32.318Z,100.00
2022-08-18T22:22:54.155Z,100.00
2022-08-18T22:28:00.775Z,100.00
2022-08-18T22:33:06.474Z,100.00
2022-08-18T22:38:15.251Z,100.00
2022-08-18T22:43:19.696Z,100.00
2022-08-18T22:48:25.842Z,100.00
2022-08-18T22:53:31.250Z,100.00
2022-08-18T22:58:36.155Z,100.00
2022-08-18T23:03:44.987Z,100.00
2022-08-18T23:08:51.765Z,100.00
2022-08-18T23:14:00.691Z,100.00
2022-08-18T23:19:06.476Z,100.00
2022-08-18T23:24:15.349Z,100.00
2022-08-18T23:29:21.978Z,100.00
2022-08-18T23:34:27.672Z,100.00
2022-08-18T23:39:34.900Z,100.00
2022-08-18T23:44:39.246Z,100.00
2022-08-18T23:49:44.999Z,100.00
2022-08-18T23:54:49.304Z,100.00
2022-08-18T23:59:54.570Z,100.00
